Time;durP1;ratioP1;P1;durP2;ratioP2;P2;SDS_P1;SDS_P2;PMS_P1;PMS_P2;Temp;Humidity;BMP_temperature;BMP_pressure;BME280_temperature;BME280_humidity;BME280_pressure;Samples;Min_cycle;Max_cycle;Signal;HPM_P1;HPM_P2
2021/07/19 00:02:11;;;;;;;11.73;7.90;;;;;;;;;;5033085;28;20710;-60
2021/07/19 00:04:41;;;;;;;9.50;7.30;;;;;;;;;;5033333;28;20441;-60
2021/07/19 00:07:08;;;;;;;11.50;7.60;;;;;;;;;;5032991;28;20441;-60
2021/07/19 00:09:36;;;;;;;9.93;7.80;;;;;;;;;;5033293;28;20861;-60
2021/07/19 00:12:03;;;;;;;11.60;8.03;;;;;;;;;;5032871;28;20469;-60
2021/07/19 00:14:31;;;;;;;8.77;6.33;;;;;;;;;;5033213;28;20477;-60
2021/07/19 00:16:59;;;;;;;11.60;7.80;;;;;;;;;;5033079;28;20941;-60
2021/07/19 00:19:27;;;;;;;11.83;7.57;;;;;;;;;;5032936;28;20445;-60
2021/07/19 00:21:56;;;;;;;11.73;7.60;;;;;;;;;;5034363;28;20534;-60
2021/07/19 00:24:24;;;;;;;9.87;7.80;;;;;;;;;;5036125;28;20476;-61
2021/07/19 00:26:51;;;;;;;11.37;7.67;;;;;;;;;;5037574;28;20510;-60
2021/07/19 00:29:18;;;;;;;11.90;7.63;;;;;;;;;;5037088;28;20453;-60
2021/07/19 00:31:45;;;;;;;10.10;7.20;;;;;;;;;;5037386;28;20465;-60
2021/07/19 00:34:13;;;;;;;11.57;7.23;;;;;;;;;;5037288;28;20480;-60
2021/07/19 00:36:40;;;;;;;9.97;7.93;;;;;;;;;;5037010;28;20995;-60
2021/07/19 00:39:09;;;;;;;13.10;7.87;;;;;;;;;;5037485;28;20448;-60
2021/07/19 00:41:38;;;;;;;11.33;8.33;;;;;;;;;;5037282;28;20500;-60
2021/07/19 00:44:06;;;;;;;10.00;7.10;;;;;;;;;;5037182;28;20858;-60
2021/07/19 00:46:33;;;;;;;10.47;7.37;;;;;;;;;;5036560;28;20448;-60
2021/07/19 00:49:00;;;;;;;11.60;7.40;;;;;;;;;;5036568;28;20786;-60
2021/07/19 00:51:28;;;;;;;14.03;8.00;;;;;;;;;;5036788;28;20518;-60
2021/07/19 00:53:55;;;;;;;11.33;7.23;;;;;;;;;;5036360;28;20481;-60
2021/07/19 00:56:26;;;;;;;7.27;6.50;;;;;;;;;;5036698;28;20451;-60
2021/07/19 00:58:53;;;;;;;9.10;7.13;;;;;;;;;;5036639;28;20444;-60
2021/07/19 01:01:21;;;;;;;7.97;6.60;;;;;;;;;;5036218;28;20465;-60
2021/07/19 01:03:49;;;;;;;12.27;6.93;;;;;;;;;;5036601;28;20834;-60
2021/07/19 01:06:19;;;;;;;10.17;7.20;;;;;;;;;;5036206;28;20449;-60
2021/07/19 01:08:48;;;;;;;10.27;7.10;;;;;;;;;;5036185;28;20543;-60
2021/07/19 01:11:15;;;;;;;9.40;6.77;;;;;;;;;;5036046;28;21055;-60
2021/07/19 01:13:44;;;;;;;9.27;7.03;;;;;;;;;;5036333;28;20468;-60
2021/07/19 01:16:11;;;;;;;12.53;7.67;;;;;;;;;;5036298;28;20490;-60
2021/07/19 01:18:38;;;;;;;8.97;6.00;;;;;;;;;;5036422;28;20507;-60
2021/07/19 01:21:16;;;;;;;9.50;6.60;;;;;;;;;;5035907;28;20972;-67
2021/07/19 01:23:58;;;;;;;14.37;8.47;;;;;;;;;;5036257;28;20421;-60
2021/07/19 01:26:31;;;;;;;9.93;7.30;;;;;;;;;;5023585;28;20445;-60
2021/07/19 01:29:00;;;;;;;11.30;7.03;;;;;;;;;;5035852;28;20440;-60
2021/07/19 01:31:29;;;;;;;9.40;6.30;;;;;;;;;;5036082;28;20469;-60
2021/07/19 01:33:59;;;;;;;8.47;7.30;;;;;;;;;;5035609;28;20477;-60
2021/07/19 01:36:27;;;;;;;8.80;7.27;;;;;;;;;;5034941;28;20966;-60
2021/07/19 01:38:55;;;;;;;12.47;7.30;;;;;;;;;;5035885;28;20856;-60
2021/07/19 01:41:22;;;;;;;10.90;6.80;;;;;;;;;;5035725;28;20542;-60
2021/07/19 01:43:50;;;;;;;9.17;6.80;;;;;;;;;;5035815;28;20511;-60
2021/07/19 01:46:19;;;;;;;12.77;7.47;;;;;;;;;;5035531;28;20453;-60
2021/07/19 01:48:47;;;;;;;13.13;8.33;;;;;;;;;;5035424;28;20449;-60
2021/07/19 01:51:14;;;;;;;10.63;7.43;;;;;;;;;;5035332;28;20512;-60
2021/07/19 01:53:42;;;;;;;10.50;7.37;;;;;;;;;;5035829;28;20476;-60
2021/07/19 01:56:09;;;;;;;13.03;7.47;;;;;;;;;;5035379;28;20457;-60
2021/07/19 01:58:37;;;;;;;8.50;6.53;;;;;;;;;;5035309;28;20495;-60
2021/07/19 02:01:05;;;;;;;12.43;7.17;;;;;;;;;;5035080;28;20465;-60
2021/07/19 02:03:33;;;;;;;12.90;7.00;;;;;;;;;;5035206;28;20567;-61
2021/07/19 02:06:01;;;;;;;10.73;6.77;;;;;;;;;;5035174;28;20934;-61
2021/07/19 02:08:29;;;;;;;12.40;7.30;;;;;;;;;;5035469;28;20559;-61
2021/07/19 02:10:56;;;;;;;10.20;6.83;;;;;;;;;;5035028;28;20469;-60
2021/07/19 02:13:25;;;;;;;8.70;7.40;;;;;;;;;;5034916;28;21066;-60
2021/07/19 02:15:53;;;;;;;12.60;7.53;;;;;;;;;;5035264;28;20453;-59
2021/07/19 02:18:23;;;;;;;13.40;7.00;;;;;;;;;;5034883;28;20441;-60
2021/07/19 02:20:53;;;;;;;13.60;7.13;;;;;;;;;;5035072;28;20457;-61
2021/07/19 02:23:20;;;;;;;11.83;7.30;;;;;;;;;;5034779;28;20503;-59
2021/07/19 02:25:48;;;;;;;12.73;7.20;;;;;;;;;;5034701;28;20499;-60
2021/07/19 02:28:15;;;;;;;12.93;7.80;;;;;;;;;;5035050;28;20790;-61
2021/07/19 02:30:43;;;;;;;16.23;7.37;;;;;;;;;;5034844;28;20518;-60
2021/07/19 02:33:13;;;;;;;11.30;7.67;;;;;;;;;;5034846;28;20457;-60
2021/07/19 02:35:41;;;;;;;10.77;7.60;;;;;;;;;;5034927;28;20882;-60
2021/07/19 02:38:10;;;;;;;13.77;7.30;;;;;;;;;;5034919;28;20507;-60
2021/07/19 02:40:38;;;;;;;9.87;7.70;;;;;;;;;;5035002;28;20449;-61
2021/07/19 02:43:06;;;;;;;11.97;7.40;;;;;;;;;;5034486;28;20507;-60
2021/07/19 02:45:36;;;;;;;8.87;6.80;;;;;;;;;;5034858;28;20479;-61
2021/07/19 02:48:04;;;;;;;11.70;8.30;;;;;;;;;;5033750;28;20483;-60
2021/07/19 02:50:32;;;;;;;15.63;6.40;;;;;;;;;;5034775;28;20499;-60
2021/07/19 02:53:00;;;;;;;9.20;7.20;;;;;;;;;;5035125;28;20453;-61
2021/07/19 02:55:30;;;;;;;14.67;7.50;;;;;;;;;;5034605;28;20441;-60
2021/07/19 02:57:57;;;;;;;15.00;7.83;;;;;;;;;;5035288;28;20449;-60
2021/07/19 03:00:24;;;;;;;14.03;8.40;;;;;;;;;;5035121;28;20452;-61
2021/07/19 03:02:53;;;;;;;13.00;7.07;;;;;;;;;;5034864;28;20523;-60
2021/07/19 03:05:22;;;;;;;9.80;7.50;;;;;;;;;;5034472;28;20441;-60
2021/07/19 03:07:51;;;;;;;10.13;6.20;;;;;;;;;;5034564;28;20495;-60
2021/07/19 03:10:20;;;;;;;10.03;6.23;;;;;;;;;;5034310;28;20448;-60
2021/07/19 03:12:50;;;;;;;8.53;5.80;;;;;;;;;;5034082;28;20471;-60
2021/07/19 03:15:18;;;;;;;9.47;5.00;;;;;;;;;;5034200;28;20488;-60
2021/07/19 03:17:45;;;;;;;12.67;5.77;;;;;;;;;;5034125;28;20878;-60
2021/07/19 03:20:13;;;;;;;7.30;4.90;;;;;;;;;;5033777;28;20482;-60
2021/07/19 03:22:41;;;;;;;8.37;5.67;;;;;;;;;;5033707;28;21006;-60
2021/07/19 03:25:09;;;;;;;7.93;5.20;;;;;;;;;;5033929;28;20441;-60
2021/07/19 03:27:37;;;;;;;11.30;5.50;;;;;;;;;;5033875;28;20453;-59
2021/07/19 03:30:06;;;;;;;11.07;5.63;;;;;;;;;;5033897;28;20444;-60
2021/07/19 03:32:34;;;;;;;11.93;6.57;;;;;;;;;;5033722;28;20465;-60
2021/07/19 03:35:02;;;;;;;15.70;6.80;;;;;;;;;;5033434;28;20477;-60
2021/07/19 03:37:29;;;;;;;10.47;5.80;;;;;;;;;;5033723;28;20506;-59
2021/07/19 03:39:57;;;;;;;16.03;6.47;;;;;;;;;;5033944;28;20453;-60
2021/07/19 03:42:24;;;;;;;8.67;6.80;;;;;;;;;;5033629;28;20552;-60
2021/07/19 03:44:52;;;;;;;10.73;7.07;;;;;;;;;;5033574;28;20445;-60
2021/07/19 03:47:22;;;;;;;8.57;6.07;;;;;;;;;;5033204;28;20452;-60
2021/07/19 03:49:49;;;;;;;9.93;6.10;;;;;;;;;;5033200;28;20495;-60
2021/07/19 03:52:17;;;;;;;8.13;6.00;;;;;;;;;;5033156;28;20464;-60
2021/07/19 03:54:44;;;;;;;12.27;7.20;;;;;;;;;;5033417;28;20480;-59
2021/07/19 03:57:12;;;;;;;14.97;6.73;;;;;;;;;;5033156;28;20934;-60
2021/07/19 03:59:39;;;;;;;10.43;5.33;;;;;;;;;;5033105;28;20567;-60
2021/07/19 04:02:10;;;;;;;13.13;6.37;;;;;;;;;;5033001;28;20453;-59
2021/07/19 04:04:41;;;;;;;9.93;5.90;;;;;;;;;;5033388;28;20429;-60
2021/07/19 04:08:23;;;;;;;13.57;5.70;;;;;;;;;;5091410;27;21141;-59
2021/07/19 04:10:51;;;;;;;9.83;6.03;;;;;;;;;;5090813;28;20485;-61
2021/07/19 04:13:19;;;;;;;6.80;5.40;;;;;;;;;;5090567;28;20454;-60
2021/07/19 04:15:49;;;;;;;12.67;5.13;;;;;;;;;;5090639;28;20484;-61
2021/07/19 04:18:16;;;;;;;6.73;5.57;;;;;;;;;;5090474;28;20442;-61
2021/07/19 04:20:44;;;;;;;14.03;6.53;;;;;;;;;;5090318;28;20500;-61
2021/07/19 04:23:11;;;;;;;10.27;6.07;;;;;;;;;;5090730;28;20439;-61
2021/07/19 04:25:40;;;;;;;12.07;5.53;;;;;;;;;;5090676;28;20496;-60
2021/07/19 04:28:08;;;;;;;13.23;6.80;;;;;;;;;;5090593;28;20478;-61
2021/07/19 04:30:36;;;;;;;11.07;6.53;;;;;;;;;;5090664;28;20450;-61
2021/07/19 04:33:03;;;;;;;14.40;6.63;;;;;;;;;;5090699;28;20496;-61
2021/07/19 04:35:30;;;;;;;15.70;5.40;;;;;;;;;;5090533;28;20784;-61
2021/07/19 04:37:58;;;;;;;12.43;6.60;;;;;;;;;;5090578;28;20446;-60
2021/07/19 04:40:26;;;;;;;12.03;6.20;;;;;;;;;;5090699;28;20541;-61
2021/07/19 04:42:56;;;;;;;7.33;5.60;;;;;;;;;;5090298;28;20554;-61
2021/07/19 04:45:23;;;;;;;10.60;5.77;;;;;;;;;;5089989;28;20938;-61
2021/07/19 04:47:50;;;;;;;12.30;5.90;;;;;;;;;;5089682;28;21074;-61
2021/07/19 04:50:18;;;;;;;8.30;5.83;;;;;;;;;;5089839;28;20837;-61
2021/07/19 04:52:45;;;;;;;13.50;6.30;;;;;;;;;;5089669;28;20466;-60
2021/07/19 04:55:13;;;;;;;9.03;5.37;;;;;;;;;;5090015;28;20492;-60
2021/07/19 04:57:42;;;;;;;12.53;6.83;;;;;;;;;;5090485;28;20443;-60
2021/07/19 05:00:12;;;;;;;8.63;4.43;;;;;;;;;;5090038;28;20501;-60
2021/07/19 05:02:40;;;;;;;7.57;4.97;;;;;;;;;;5089690;28;20466;-60
2021/07/19 05:05:09;;;;;;;7.03;5.20;;;;;;;;;;5089747;28;20934;-60
2021/07/19 05:07:36;;;;;;;8.60;5.27;;;;;;;;;;5089570;28;20923;-61
2021/07/19 05:10:05;;;;;;;8.77;5.23;;;;;;;;;;5089695;28;20460;-60
2021/07/19 05:12:33;;;;;;;10.53;5.40;;;;;;;;;;5090008;28;20519;-61
2021/07/19 05:15:00;;;;;;;13.37;5.50;;;;;;;;;;5089531;28;20453;-59
2021/07/19 05:17:29;;;;;;;7.43;5.30;;;;;;;;;;5089141;28;20988;-60
2021/07/19 05:19:57;;;;;;;7.37;5.20;;;;;;;;;;5075995;28;20521;-60
2021/07/19 05:22:24;;;;;;;9.87;5.70;;;;;;;;;;5076029;28;20471;-60
2021/07/19 05:24:58;;;;;;;10.10;5.90;;;;;;;;;;5075515;28;20512;-61
2021/07/19 05:27:26;;;;;;;9.30;5.40;;;;;;;;;;5075945;28;20576;-59
2021/07/19 05:29:53;;;;;;;7.23;5.23;;;;;;;;;;5075787;28;20453;-62
2021/07/19 05:32:20;;;;;;;6.90;5.17;;;;;;;;;;5075679;28;20542;-61
2021/07/19 05:34:49;;;;;;;11.10;6.10;;;;;;;;;;5075509;28;20457;-60
2021/07/19 05:37:16;;;;;;;12.67;6.03;;;;;;;;;;5076052;28;20522;-61
2021/07/19 05:39:43;;;;;;;9.30;6.47;;;;;;;;;;5076036;28;20488;-61
2021/07/19 05:42:10;;;;;;;11.90;5.90;;;;;;;;;;5076931;28;20491;-60
2021/07/19 05:44:38;;;;;;;8.37;6.00;;;;;;;;;;5077357;28;20454;-60
2021/07/19 05:47:05;;;;;;;8.20;5.10;;;;;;;;;;5077478;28;20477;-60
2021/07/19 05:49:33;;;;;;;10.80;4.60;;;;;;;;;;5075359;28;20445;-58
2021/07/19 05:52:02;;;;;;;9.63;5.13;;;;;;;;;;5074919;28;21055;-60
2021/07/19 05:54:29;;;;;;;8.60;4.33;;;;;;;;;;5075513;28;20502;-60
2021/07/19 05:56:56;;;;;;;10.73;5.00;;;;;;;;;;5075126;28;20443;-59
2021/07/19 05:59:23;;;;;;;9.67;4.90;;;;;;;;;;5074823;28;20449;-61
2021/07/19 06:01:50;;;;;;;9.80;5.20;;;;;;;;;;5075000;28;20507;-60
2021/07/19 06:04:18;;;;;;;7.47;4.40;;;;;;;;;;5075621;28;20452;-60
2021/07/19 06:06:45;;;;;;;8.37;4.33;;;;;;;;;;5074441;28;20508;-61
2021/07/19 06:09:14;;;;;;;8.23;5.17;;;;;;;;;;5074915;28;21012;-60
2021/07/19 06:11:41;;;;;;;8.27;4.17;;;;;;;;;;5074769;28;20532;-61
2021/07/19 06:14:08;;;;;;;8.43;4.50;;;;;;;;;;5074730;28;20446;-60
2021/07/19 06:16:35;;;;;;;7.67;4.07;;;;;;;;;;5074791;28;20439;-61
2021/07/19 06:19:03;;;;;;;6.17;4.10;;;;;;;;;;5074739;28;20532;-61
2021/07/19 06:23:58;;;;;;;8.47;4.60;;;;;;;;;;5013262;28;20544;-55
2021/07/19 06:26:27;;;;;;;10.27;4.33;;;;;;;;;;5014142;28;20509;-56
2021/07/19 06:28:54;;;;;;;9.43;3.90;;;;;;;;;;5013983;28;20532;-56
2021/07/19 06:31:21;;;;;;;9.10;4.30;;;;;;;;;;5014220;28;20503;-56
2021/07/19 06:33:48;;;;;;;9.13;4.40;;;;;;;;;;5014593;28;20866;-56
2021/07/19 06:36:16;;;;;;;12.00;4.40;;;;;;;;;;5014428;28;20934;-56
2021/07/19 06:38:43;;;;;;;4.13;3.20;;;;;;;;;;5013918;28;20515;-56
2021/07/19 06:41:12;;;;;;;6.47;4.17;;;;;;;;;;5014638;28;20465;-57
2021/07/19 06:43:41;;;;;;;7.23;3.83;;;;;;;;;;5014221;28;20473;-56
2021/07/19 06:46:08;;;;;;;7.10;4.13;;;;;;;;;;5014167;28;20445;-56
2021/07/19 06:48:36;;;;;;;7.23;3.70;;;;;;;;;;5013928;28;20485;-56
2021/07/19 06:51:04;;;;;;;4.87;3.90;;;;;;;;;;5013830;28;20512;-56
2021/07/19 06:53:31;;;;;;;7.03;4.37;;;;;;;;;;5014034;28;20556;-56
2021/07/19 06:55:58;;;;;;;8.93;3.90;;;;;;;;;;5014064;28;20811;-57
2021/07/19 06:58:26;;;;;;;5.87;3.97;;;;;;;;;;5013643;28;20564;-57
2021/07/19 07:00:54;;;;;;;6.83;4.00;;;;;;;;;;5013566;28;20458;-57
2021/07/19 07:03:22;;;;;;;12.50;5.03;;;;;;;;;;5013942;28;20497;-57
2021/07/19 07:05:49;;;;;;;7.90;4.20;;;;;;;;;;5013711;28;20446;-56
2021/07/19 07:08:16;;;;;;;8.13;4.30;;;;;;;;;;5013656;28;20478;-56
2021/07/19 07:10:43;;;;;;;6.97;3.77;;;;;;;;;;5014010;28;20446;-57
2021/07/19 07:13:11;;;;;;;7.30;4.27;;;;;;;;;;5013471;28;20529;-56
2021/07/19 07:15:38;;;;;;;4.77;3.43;;;;;;;;;;5013746;28;20500;-56
2021/07/19 07:18:08;;;;;;;4.93;3.80;;;;;;;;;;5013335;28;20846;-56
2021/07/19 07:20:35;;;;;;;7.60;4.10;;;;;;;;;;5013358;28;20446;-56
2021/07/19 07:23:02;;;;;;;8.80;4.10;;;;;;;;;;5013370;28;20532;-56
2021/07/19 07:25:30;;;;;;;8.97;4.10;;;;;;;;;;5013566;28;20438;-57
2021/07/19 07:27:57;;;;;;;7.27;4.37;;;;;;;;;;5013587;28;20482;-61
2021/07/19 07:30:25;;;;;;;6.03;3.13;;;;;;;;;;5013603;28;20865;-57
2021/07/19 07:32:53;;;;;;;7.33;3.27;;;;;;;;;;5013204;28;20469;-56
2021/07/19 07:35:22;;;;;;;7.90;3.77;;;;;;;;;;5013264;28;20446;-57
2021/07/19 07:37:49;;;;;;;7.53;3.60;;;;;;;;;;5013247;28;20447;-57
2021/07/19 07:40:17;;;;;;;4.33;3.20;;;;;;;;;;5013061;28;20449;-58
2021/07/19 07:42:45;;;;;;;6.00;3.10;;;;;;;;;;5013041;28;20868;-58
2021/07/19 07:45:13;;;;;;;7.50;4.10;;;;;;;;;;5013326;28;20446;-58
2021/07/19 07:47:42;;;;;;;5.53;3.77;;;;;;;;;;5013363;28;20936;-58
2021/07/19 07:50:10;;;;;;;4.50;3.13;;;;;;;;;;5012878;28;20465;-58
2021/07/19 07:52:40;;;;;;;9.73;3.60;;;;;;;;;;5012992;28;20561;-58
2021/07/19 07:55:08;;;;;;;7.13;3.50;;;;;;;;;;5012839;28;20450;-58
2021/07/19 07:57:35;;;;;;;7.27;3.87;;;;;;;;;;5013056;28;20492;-59
2021/07/19 08:00:03;;;;;;;9.50;4.13;;;;;;;;;;5012779;28;20932;-59
2021/07/19 08:02:30;;;;;;;13.57;4.27;;;;;;;;;;5012893;28;20465;-58
2021/07/19 08:04:57;;;;;;;4.83;3.23;;;;;;;;;;5012751;28;20501;-59
2021/07/19 08:07:25;;;;;;;5.37;3.17;;;;;;;;;;5013073;28;20889;-58
2021/07/19 08:09:53;;;;;;;6.93;3.17;;;;;;;;;;5013574;28;20450;-59
2021/07/19 08:12:21;;;;;;;3.70;3.10;;;;;;;;;;5012864;28;21044;-60
2021/07/19 08:14:48;;;;;;;6.13;3.40;;;;;;;;;;5013372;28;20512;-60
2021/07/19 08:17:15;;;;;;;8.10;3.90;;;;;;;;;;5013322;28;20500;-60
2021/07/19 08:19:42;;;;;;;7.50;4.00;;;;;;;;;;5012720;28;20454;-58
2021/07/19 08:22:13;;;;;;;6.40;4.27;;;;;;;;;;5012209;28;20504;-59
2021/07/19 08:24:40;;;;;;;4.70;3.17;;;;;;;;;;5012510;28;20925;-60
2021/07/19 08:27:09;;;;;;;4.83;3.27;;;;;;;;;;5012766;28;20870;-60
2021/07/19 08:29:36;;;;;;;4.13;2.97;;;;;;;;;;5012421;28;20481;-59
2021/07/19 08:32:04;;;;;;;4.53;2.60;;;;;;;;;;5012067;28;20576;-58
2021/07/19 08:34:31;;;;;;;5.57;3.30;;;;;;;;;;5012154;28;20937;-60
2021/07/19 08:36:58;;;;;;;6.50;3.00;;;;;;;;;;5013283;28;20450;-59
2021/07/19 08:39:25;;;;;;;5.07;3.03;;;;;;;;;;5012842;28;20443;-58
2021/07/19 08:41:53;;;;;;;5.37;2.90;;;;;;;;;;5013250;28;20470;-61
2021/07/19 08:44:22;;;;;;;8.33;3.43;;;;;;;;;;5013118;28;20446;-56
2021/07/19 08:46:49;;;;;;;3.40;3.10;;;;;;;;;;5012925;28;20499;-57
2021/07/19 08:49:16;;;;;;;8.00;3.53;;;;;;;;;;5013219;28;20526;-57
2021/07/19 08:51:46;;;;;;;4.13;2.87;;;;;;;;;;5013095;28;20469;-58
2021/07/19 08:54:13;;;;;;;6.93;3.30;;;;;;;;;;5015443;28;20454;-58
2021/07/19 08:56:42;;;;;;;5.97;3.10;;;;;;;;;;5016367;28;20442;-56
2021/07/19 08:59:10;;;;;;;6.53;3.37;;;;;;;;;;5016215;28;20451;-56
2021/07/19 09:01:40;;;;;;;6.57;2.80;;;;;;;;;;5016396;28;20495;-57
2021/07/19 09:04:08;;;;;;;4.47;3.10;;;;;;;;;;5016316;28;20526;-57
2021/07/19 09:06:35;;;;;;;5.10;3.87;;;;;;;;;;5016408;28;20865;-58
2021/07/19 09:09:02;;;;;;;5.13;3.60;;;;;;;;;;5016022;28;20489;-58
2021/07/19 09:11:30;;;;;;;7.70;3.50;;;;;;;;;;5015797;28;20450;-58
2021/07/19 09:13:58;;;;;;;7.73;4.00;;;;;;;;;;5015458;28;20500;-59
2021/07/19 09:16:26;;;;;;;5.40;3.50;;;;;;;;;;5016122;28;20509;-60
2021/07/19 09:19:08;;;;;;;6.93;4.43;;;;;;;;;;5016966;28;20454;-59
2021/07/19 09:21:36;;;;;;;5.20;3.13;;;;;;;;;;5015752;28;20585;-59
2021/07/19 09:24:07;;;;;;;4.17;3.50;;;;;;;;;;5016125;28;20549;-57
2021/07/19 09:26:35;;;;;;;4.27;3.00;;;;;;;;;;5016283;28;20526;-60
2021/07/19 09:29:02;;;;;;;6.10;3.40;;;;;;;;;;5015694;28;20536;-58
2021/07/19 09:31:33;;;;;;;6.30;3.33;;;;;;;;;;5015504;28;20865;-58
2021/07/19 09:34:01;;;;;;;5.83;4.30;;;;;;;;;;5015765;28;20490;-57
2021/07/19 09:36:31;;;;;;;4.63;3.87;;;;;;;;;;5015517;28;20447;-58
2021/07/19 09:39:05;;;;;;;6.93;3.63;;;;;;;;;;5015295;28;20443;-57
2021/07/19 09:41:33;;;;;;;4.33;3.60;;;;;;;;;;5014805;28;20443;-57
2021/07/19 09:44:00;;;;;;;6.93;3.73;;;;;;;;;;5015041;28;20447;-58
2021/07/19 09:46:32;;;;;;;7.70;3.43;;;;;;;;;;5015389;28;20498;-57
2021/07/19 09:49:00;;;;;;;5.20;4.07;;;;;;;;;;5014590;28;21062;-57
2021/07/19 09:51:33;;;;;;;7.67;3.80;;;;;;;;;;5015105;28;20539;-57
2021/07/19 09:54:09;;;;;;;6.67;3.77;;;;;;;;;;5014348;28;20499;-58
2021/07/19 09:56:37;;;;;;;9.07;4.57;;;;;;;;;;5015179;28;20524;-57
2021/07/19 09:59:07;;;;;;;5.37;4.33;;;;;;;;;;5015010;28;20514;-58
2021/07/19 10:01:36;;;;;;;6.77;4.27;;;;;;;;;;5014695;28;20481;-57
2021/07/19 10:04:07;;;;;;;5.53;4.20;;;;;;;;;;5014848;28;20804;-58
2021/07/19 10:06:35;;;;;;;4.33;3.83;;;;;;;;;;5014497;28;20449;-59
2021/07/19 10:09:05;;;;;;;6.07;5.03;;;;;;;;;;5014642;28;20546;-58
2021/07/19 10:11:33;;;;;;;7.27;4.70;;;;;;;;;;5014109;28;20472;-60
2021/07/19 10:14:01;;;;;;;8.60;5.10;;;;;;;;;;5014475;28;20511;-61
2021/07/19 10:16:30;;;;;;;5.90;4.30;;;;;;;;;;5014762;28;20511;-59
2021/07/19 10:18:58;;;;;;;6.93;4.43;;;;;;;;;;5013961;28;20458;-60
2021/07/19 10:21:29;;;;;;;7.00;5.40;;;;;;;;;;5014774;28;20511;-60
2021/07/19 10:23:59;;;;;;;5.13;4.27;;;;;;;;;;5014519;28;20501;-61
2021/07/19 10:26:27;;;;;;;5.63;4.70;;;;;;;;;;5014256;28;20477;-59
2021/07/19 10:28:54;;;;;;;5.70;4.90;;;;;;;;;;5013970;28;20477;-60
2021/07/19 10:31:22;;;;;;;5.43;3.93;;;;;;;;;;5014170;28;20446;-60
2021/07/19 10:33:50;;;;;;;8.73;5.10;;;;;;;;;;5013403;28;20482;-59
2021/07/19 10:36:21;;;;;;;4.43;3.97;;;;;;;;;;5013306;28;21013;-60
2021/07/19 10:38:48;;;;;;;6.93;5.30;;;;;;;;;;5013551;28;20899;-60
2021/07/19 10:41:22;;;;;;;6.80;4.57;;;;;;;;;;5014080;28;20449;-60
2021/07/19 10:43:59;;;;;;;8.47;5.23;;;;;;;;;;5014549;28;20479;-60
2021/07/19 10:46:27;;;;;;;7.97;5.23;;;;;;;;;;5013784;28;20434;-60
2021/07/19 10:49:04;;;;;;;10.50;5.17;;;;;;;;;;5013681;28;20572;-60
2021/07/19 10:51:38;;;;;;;7.40;4.73;;;;;;;;;;5013961;28;20491;-60
2021/07/19 10:54:12;;;;;;;6.37;5.77;;;;;;;;;;5014286;28;20491;-60
2021/07/19 10:56:40;;;;;;;7.40;4.73;;;;;;;;;;5014604;28;20441;-60
2021/07/19 10:59:07;;;;;;;5.80;4.70;;;;;;;;;;5014342;28;20446;-60
2021/07/19 11:01:35;;;;;;;7.27;5.20;;;;;;;;;;5013471;28;20935;-60
2021/07/19 11:04:15;;;;;;;11.60;5.37;;;;;;;;;;5013479;28;20446;-60
2021/07/19 11:06:47;;;;;;;7.93;6.10;;;;;;;;;;5014450;28;20853;-60
2021/07/19 11:09:15;;;;;;;9.73;5.97;;;;;;;;;;5013211;28;20473;-59
2021/07/19 11:11:44;;;;;;;4.90;4.40;;;;;;;;;;5013099;28;20474;-60
2021/07/19 11:14:14;;;;;;;5.63;4.33;;;;;;;;;;5013138;28;20455;-60
2021/07/19 11:16:42;;;;;;;6.63;4.50;;;;;;;;;;5012680;28;20512;-61
2021/07/19 11:19:10;;;;;;;9.33;5.17;;;;;;;;;;5013921;28;20527;-59
2021/07/19 11:21:37;;;;;;;5.60;4.60;;;;;;;;;;5013717;28;20492;-58
2021/07/19 11:24:08;;;;;;;5.50;4.00;;;;;;;;;;5013776;28;20437;-58
2021/07/19 11:26:35;;;;;;;7.23;5.30;;;;;;;;;;5013281;28;20496;-57
2021/07/19 11:29:04;;;;;;;7.70;5.13;;;;;;;;;;5013379;28;20481;-57
2021/07/19 11:31:32;;;;;;;7.93;5.10;;;;;;;;;;5013168;28;20457;-57
2021/07/19 11:34:00;;;;;;;7.10;5.90;;;;;;;;;;5013004;28;20941;-58
2021/07/19 11:36:28;;;;;;;7.90;4.83;;;;;;;;;;5013408;28;20474;-58
2021/07/19 11:38:56;;;;;;;7.73;5.40;;;;;;;;;;5013426;28;20453;-59
2021/07/19 11:41:24;;;;;;;9.30;5.10;;;;;;;;;;5013005;28;20500;-58
2021/07/19 11:43:52;;;;;;;9.63;5.43;;;;;;;;;;5013064;28;20879;-60
2021/07/19 11:46:32;;;;;;;10.13;5.30;;;;;;;;;;5012995;28;20811;-58
2021/07/19 11:49:01;;;;;;;8.40;6.23;;;;;;;;;;5013266;28;20468;-58
2021/07/19 11:51:29;;;;;;;7.10;5.80;;;;;;;;;;5013084;28;20452;-60
2021/07/19 11:53:57;;;;;;;8.40;5.07;;;;;;;;;;5012897;28;20948;-60
2021/07/19 11:56:24;;;;;;;7.17;5.10;;;;;;;;;;5012311;28;20510;-57
2021/07/19 11:58:52;;;;;;;6.37;5.40;;;;;;;;;;5012930;28;20445;-58
2021/07/19 12:01:26;;;;;;;6.90;5.13;;;;;;;;;;5012686;28;20860;-58
2021/07/19 12:03:55;;;;;;;9.07;5.50;;;;;;;;;;5012860;28;20538;-60
2021/07/19 12:06:23;;;;;;;7.33;5.63;;;;;;;;;;5013012;28;20563;-57
2021/07/19 12:08:54;;;;;;;8.00;5.90;;;;;;;;;;5012730;28;20475;-57
2021/07/19 12:11:21;;;;;;;6.93;5.63;;;;;;;;;;5012616;28;20870;-59
2021/07/19 12:13:49;;;;;;;7.60;6.13;;;;;;;;;;5012552;28;20465;-59
2021/07/19 12:16:17;;;;;;;6.90;5.80;;;;;;;;;;5012626;28;20820;-57
2021/07/19 12:18:44;;;;;;;7.33;5.70;;;;;;;;;;5012892;28;20448;-59
2021/07/19 12:21:14;;;;;;;8.30;5.70;;;;;;;;;;5012626;28;20445;-57
2021/07/19 12:23:43;;;;;;;13.00;6.07;;;;;;;;;;5012268;28;20478;-57
2021/07/19 12:26:10;;;;;;;9.60;6.30;;;;;;;;;;5012489;28;20532;-58
2021/07/19 12:28:38;;;;;;;8.30;5.83;;;;;;;;;;5013476;28;20456;-57
2021/07/19 12:31:12;;;;;;;6.60;5.73;;;;;;;;;;5016616;28;20560;-57
2021/07/19 12:33:40;;;;;;;7.73;5.80;;;;;;;;;;5016021;28;20551;-57
2021/07/19 12:38:37;;;;;;;7.73;6.07;;;;;;;;;;5051605;23;21008;-57
2021/07/19 12:41:10;;;;;;;8.33;5.83;;;;;;;;;;5016719;28;20654;-57
2021/07/19 12:43:37;;;;;;;10.87;7.03;;;;;;;;;;5016632;28;20435;-56
2021/07/19 12:46:04;;;;;;;7.47;6.73;;;;;;;;;;5016378;28;20944;-57
2021/07/19 12:48:32;;;;;;;9.70;6.33;;;;;;;;;;5016359;28;20461;-58
2021/07/19 12:51:02;;;;;;;7.10;6.13;;;;;;;;;;5016754;28;20449;-56
2021/07/19 12:53:34;;;;;;;8.77;6.67;;;;;;;;;;5016019;28;20470;-57
2021/07/19 12:56:14;;;;;;;9.10;6.33;;;;;;;;;;5016507;28;20470;-57
2021/07/19 12:58:41;;;;;;;9.33;6.30;;;;;;;;;;5016087;28;20533;-57
2021/07/19 13:01:09;;;;;;;13.07;7.67;;;;;;;;;;5016212;28;20606;-56
2021/07/19 13:03:37;;;;;;;7.70;6.40;;;;;;;;;;5016367;28;20542;-55
2021/07/19 13:06:05;;;;;;;9.13;7.50;;;;;;;;;;5016069;28;20536;-56
2021/07/19 13:08:32;;;;;;;10.13;6.90;;;;;;;;;;5015601;28;20970;-56
2021/07/19 13:11:07;;;;;;;9.37;7.17;;;;;;;;;;5015361;28;20533;-58
2021/07/19 13:13:36;;;;;;;7.43;6.63;;;;;;;;;;5016014;28;20432;-57
2021/07/19 13:16:03;;;;;;;9.97;6.50;;;;;;;;;;5015884;28;20450;-56
2021/07/19 13:18:32;;;;;;;12.33;6.60;;;;;;;;;;5016014;28;20526;-57
2021/07/19 13:21:04;;;;;;;10.33;6.63;;;;;;;;;;5015797;28;20452;-57
2021/07/19 13:23:34;;;;;;;10.17;5.63;;;;;;;;;;5016688;28;20542;-57
2021/07/19 13:26:06;;;;;;;10.60;6.37;;;;;;;;;;5016928;28;20522;-56
2021/07/19 13:28:33;;;;;;;9.03;7.07;;;;;;;;;;5015494;28;20471;-56
2021/07/19 13:31:04;;;;;;;9.17;6.60;;;;;;;;;;5015546;28;20488;-55
2021/07/19 13:33:31;;;;;;;7.87;6.47;;;;;;;;;;5016040;28;20484;-57
2021/07/19 13:35:59;;;;;;;8.83;7.03;;;;;;;;;;5015675;28;20570;-56
2021/07/19 13:38:36;;;;;;;8.73;6.60;;;;;;;;;;5015365;28;20479;-56
2021/07/19 13:41:03;;;;;;;11.37;6.53;;;;;;;;;;5015246;28;20849;-56
2021/07/19 13:43:36;;;;;;;8.70;5.77;;;;;;;;;;5015208;28;20516;-57
2021/07/19 13:46:05;;;;;;;9.10;6.53;;;;;;;;;;5015160;28;20436;-56
2021/07/19 13:48:33;;;;;;;8.17;6.67;;;;;;;;;;5014924;28;20471;-56
2021/07/19 13:51:01;;;;;;;9.80;6.50;;;;;;;;;;5014934;28;20967;-57
2021/07/19 13:53:28;;;;;;;13.93;7.43;;;;;;;;;;5016157;28;20456;-57
2021/07/19 13:55:56;;;;;;;11.00;6.80;;;;;;;;;;5014952;28;20958;-57
2021/07/19 13:58:24;;;;;;;10.07;6.60;;;;;;;;;;5014832;28;20463;-56
2021/07/19 14:00:51;;;;;;;9.90;7.20;;;;;;;;;;5015382;28;20882;-57
2021/07/19 14:03:20;;;;;;;12.07;7.13;;;;;;;;;;5015314;28;20459;-57
2021/07/19 14:05:47;;;;;;;10.17;7.47;;;;;;;;;;5014826;28;20848;-56
2021/07/19 14:08:15;;;;;;;11.03;7.23;;;;;;;;;;5014728;28;21004;-56
2021/07/19 14:10:43;;;;;;;10.63;7.10;;;;;;;;;;5014972;28;20492;-56
2021/07/19 14:13:11;;;;;;;9.20;6.90;;;;;;;;;;5014709;28;20504;-57
2021/07/19 14:15:38;;;;;;;9.33;7.00;;;;;;;;;;5014716;28;20458;-57
2021/07/19 14:18:06;;;;;;;11.17;6.97;;;;;;;;;;5014792;28;20523;-56
2021/07/19 14:20:35;;;;;;;9.73;6.60;;;;;;;;;;5014544;28;20492;-57
2021/07/19 14:23:02;;;;;;;8.30;6.93;;;;;;;;;;5015096;28;20452;-55
2021/07/19 14:25:30;;;;;;;7.67;6.67;;;;;;;;;;5015002;28;20447;-55
2021/07/19 14:27:58;;;;;;;7.67;5.80;;;;;;;;;;5014470;28;20495;-55
2021/07/19 14:30:25;;;;;;;6.90;6.07;;;;;;;;;;5014692;28;20482;-52
2021/07/19 14:32:53;;;;;;;9.10;6.57;;;;;;;;;;5014040;28;20981;-52
2021/07/19 14:35:21;;;;;;;8.33;6.23;;;;;;;;;;5014717;28;20496;-55
2021/07/19 14:37:50;;;;;;;7.80;6.30;;;;;;;;;;5013961;28;20519;-56
2021/07/19 14:40:18;;;;;;;10.43;8.07;;;;;;;;;;5014333;28;20833;-56
2021/07/19 14:42:47;;;;;;;8.20;6.73;;;;;;;;;;5014471;28;20513;-54
2021/07/19 14:45:16;;;;;;;11.13;7.40;;;;;;;;;;5014198;28;20512;-53
2021/07/19 14:47:43;;;;;;;7.10;5.90;;;;;;;;;;5014474;28;20466;-53
2021/07/19 14:50:11;;;;;;;11.10;7.27;;;;;;;;;;5014043;28;20491;-55
2021/07/19 14:52:39;;;;;;;9.93;8.10;;;;;;;;;;5013215;28;20451;-55